sensor_id;sensor_type;location;lat;lon;timestamp;temperature;humidity
12303;DHT22;6214;48.012;7.862;2023-02-15T00:01:51;2.60;99.90
12303;DHT22;6214;48.012;7.862;2023-02-15T00:04:21;2.60;99.90
12303;DHT22;6214;48.012;7.862;2023-02-15T00:06:49;2.70;99.90
12303;DHT22;6214;48.012;7.862;2023-02-15T00:09:16;2.70;99.90
12303;DHT22;6214;48.012;7.862;2023-02-15T00:11:43;2.60;99.90
12303;DHT22;6214;48.012;7.862;2023-02-15T00:14:21;2.70;99.90
12303;DHT22;6214;48.012;7.862;2023-02-15T00:16:50;2.60;99.90
12303;DHT22;6214;48.012;7.862;2023-02-15T00:19:18;2.50;99.90
12303;DHT22;6214;48.012;7.862;2023-02-15T00:21:47;2.50;99.90
12303;DHT22;6214;48.012;7.862;2023-02-15T00:24:16;2.40;99.90
12303;DHT22;6214;48.012;7.862;2023-02-15T00:26:44;2.50;99.90
12303;DHT22;6214;48.012;7.862;2023-02-15T00:29:13;2.50;99.90
12303;DHT22;6214;48.012;7.862;2023-02-15T00:31:41;2.50;99.90
12303;DHT22;6214;48.012;7.862;2023-02-15T00:36:39;2.50;99.90
12303;DHT22;6214;48.012;7.862;2023-02-15T00:39:06;2.50;99.90
12303;DHT22;6214;48.012;7.862;2023-02-15T00:41:34;2.50;99.90
12303;DHT22;6214;48.012;7.862;2023-02-15T00:44:01;2.50;99.90
12303;DHT22;6214;48.012;7.862;2023-02-15T00:46:28;2.40;99.90
12303;DHT22;6214;48.012;7.862;2023-02-15T00:48:55;2.30;99.90
12303;DHT22;6214;48.012;7.862;2023-02-15T00:51:22;2.20;99.90
12303;DHT22;6214;48.012;7.862;2023-02-15T00:53:50;2.20;99.90
12303;DHT22;6214;48.012;7.862;2023-02-15T00:56:17;2.20;99.90
12303;DHT22;6214;48.012;7.862;2023-02-15T00:58:44;2.30;99.90
12303;DHT22;6214;48.012;7.862;2023-02-15T01:01:14;2.30;99.90
12303;DHT22;6214;48.012;7.862;2023-02-15T01:03:41;2.40;99.90
12303;DHT22;6214;48.012;7.862;2023-02-15T01:06:09;2.40;99.90
12303;DHT22;6214;48.012;7.862;2023-02-15T01:08:37;2.30;99.90
12303;DHT22;6214;48.012;7.862;2023-02-15T01:11:09;2.30;99.90
12303;DHT22;6214;48.012;7.862;2023-02-15T01:13:37;2.40;99.90
12303;DHT22;6214;48.012;7.862;2023-02-15T01:16:04;2.30;99.90
12303;DHT22;6214;48.012;7.862;2023-02-15T01:18:32;2.10;99.90
12303;DHT22;6214;48.012;7.862;2023-02-15T01:20:59;2.10;99.90
12303;DHT22;6214;48.012;7.862;2023-02-15T01:23:26;2.10;99.90
12303;DHT22;6214;48.012;7.862;2023-02-15T01:25:53;2.10;99.90
12303;DHT22;6214;48.012;7.862;2023-02-15T01:28:20;2.30;99.90
12303;DHT22;6214;48.012;7.862;2023-02-15T01:30:47;2.30;99.90
12303;DHT22;6214;48.012;7.862;2023-02-15T01:33:14;2.30;99.90
12303;DHT22;6214;48.012;7.862;2023-02-15T01:35:45;2.20;99.90
12303;DHT22;6214;48.012;7.862;2023-02-15T01:38:13;2.20;99.90
12303;DHT22;6214;48.012;7.862;2023-02-15T01:40:40;2.40;99.90
12303;DHT22;6214;48.012;7.862;2023-02-15T01:43:11;2.40;99.90
12303;DHT22;6214;48.012;7.862;2023-02-15T01:45:39;2.30;99.90
12303;DHT22;6214;48.012;7.862;2023-02-15T01:48:17;2.40;99.90
12303;DHT22;6214;48.012;7.862;2023-02-15T01:50:53;2.30;99.90
12303;DHT22;6214;48.012;7.862;2023-02-15T01:53:48;2.20;99.90
12303;DHT22;6214;48.012;7.862;2023-02-15T01:56:27;2.30;99.90
12303;DHT22;6214;48.012;7.862;2023-02-15T01:58:56;2.10;99.90
12303;DHT22;6214;48.012;7.862;2023-02-15T02:01:27;2.00;99.90
12303;DHT22;6214;48.012;7.862;2023-02-15T02:06:35;1.90;99.90
12303;DHT22;6214;48.012;7.862;2023-02-15T02:09:02;1.80;99.90
12303;DHT22;6214;48.012;7.862;2023-02-15T02:11:29;1.70;99.90
12303;DHT22;6214;48.012;7.862;2023-02-15T02:13:56;1.80;99.90
12303;DHT22;6214;48.012;7.862;2023-02-15T02:17:09;1.80;99.90
12303;DHT22;6214;48.012;7.862;2023-02-15T02:19:44;1.90;99.90
12303;DHT22;6214;48.012;7.862;2023-02-15T02:28:01;1.80;99.90
12303;DHT22;6214;48.012;7.862;2023-02-15T02:31:08;1.90;99.90
12303;DHT22;6214;48.012;7.862;2023-02-15T02:36:57;2.10;99.90
12303;DHT22;6214;48.012;7.862;2023-02-15T02:45:16;1.80;99.90
12303;DHT22;6214;48.012;7.862;2023-02-15T02:47:50;1.90;99.90
12303;DHT22;6214;48.012;7.862;2023-02-15T02:50:28;1.90;99.90
12303;DHT22;6214;48.012;7.862;2023-02-15T02:52:57;2.00;99.90
12303;DHT22;6214;48.012;7.862;2023-02-15T02:55:31;1.90;99.90
12303;DHT22;6214;48.012;7.862;2023-02-15T03:00:59;1.80;99.90
12303;DHT22;6214;48.012;7.862;2023-02-15T03:06:09;1.70;99.90
12303;DHT22;6214;48.012;7.862;2023-02-15T03:08:43;1.80;99.90
12303;DHT22;6214;48.012;7.862;2023-02-15T03:11:12;2.00;99.90
12303;DHT22;6214;48.012;7.862;2023-02-15T03:13:39;2.10;99.90
12303;DHT22;6214;48.012;7.862;2023-02-15T03:16:09;2.10;99.90
12303;DHT22;6214;48.012;7.862;2023-02-15T03:19:08;2.10;99.90
12303;DHT22;6214;48.012;7.862;2023-02-15T03:21:40;3.40;99.90
12303;DHT22;6214;48.012;7.862;2023-02-15T03:24:14;1.80;99.90
12303;DHT22;6214;48.012;7.862;2023-02-15T03:26:45;1.70;99.90
12303;DHT22;6214;48.012;7.862;2023-02-15T03:29:13;1.60;99.90
12303;DHT22;6214;48.012;7.862;2023-02-15T03:31:45;1.60;99.90
12303;DHT22;6214;48.012;7.862;2023-02-15T03:34:13;1.60;99.90
12303;DHT22;6214;48.012;7.862;2023-02-15T03:39:33;1.60;99.90
12303;DHT22;6214;48.012;7.862;2023-02-15T03:42:25;1.40;99.90
12303;DHT22;6214;48.012;7.862;2023-02-15T03:45:15;1.40;99.90
12303;DHT22;6214;48.012;7.862;2023-02-15T03:47:47;1.60;99.90
12303;DHT22;6214;48.012;7.862;2023-02-15T03:50:26;1.90;99.90
12303;DHT22;6214;48.012;7.862;2023-02-15T03:53:16;1.90;99.90
12303;DHT22;6214;48.012;7.862;2023-02-15T03:55:54;1.80;99.90
12303;DHT22;6214;48.012;7.862;2023-02-15T03:58:21;1.90;99.90
12303;DHT22;6214;48.012;7.862;2023-02-15T04:01:17;1.80;99.90
12303;DHT22;6214;48.012;7.862;2023-02-15T04:04:18;1.90;99.90
12303;DHT22;6214;48.012;7.862;2023-02-15T04:06:46;1.80;99.90
12303;DHT22;6214;48.012;7.862;2023-02-15T04:09:13;1.80;99.90
12303;DHT22;6214;48.012;7.862;2023-02-15T04:12:03;1.90;99.90
12303;DHT22;6214;48.012;7.862;2023-02-15T04:14:30;2.10;99.90
12303;DHT22;6214;48.012;7.862;2023-02-15T04:17:15;2.00;99.90
12303;DHT22;6214;48.012;7.862;2023-02-15T04:19:42;1.80;99.90
12303;DHT22;6214;48.012;7.862;2023-02-15T04:22:28;1.70;99.90
12303;DHT22;6214;48.012;7.862;2023-02-15T04:25:13;1.60;99.90
12303;DHT22;6214;48.012;7.862;2023-02-15T04:27:49;1.80;99.90
12303;DHT22;6214;48.012;7.862;2023-02-15T04:30:19;1.90;99.90
12303;DHT22;6214;48.012;7.862;2023-02-15T04:32:47;2.00;99.90
12303;DHT22;6214;48.012;7.862;2023-02-15T04:35:14;2.00;99.90
12303;DHT22;6214;48.012;7.862;2023-02-15T04:37:42;1.90;99.90
12303;DHT22;6214;48.012;7.862;2023-02-15T04:40:12;1.90;99.90
12303;DHT22;6214;48.012;7.862;2023-02-15T04:42:40;2.00;99.90
12303;DHT22;6214;48.012;7.862;2023-02-15T04:45:07;1.80;99.90
12303;DHT22;6214;48.012;7.862;2023-02-15T04:47:34;1.80;99.90
12303;DHT22;6214;48.012;7.862;2023-02-15T04:50:01;1.90;99.90
12303;DHT22;6214;48.012;7.862;2023-02-15T04:52:28;1.80;99.90
12303;DHT22;6214;48.012;7.862;2023-02-15T04:54:55;1.80;99.90
12303;DHT22;6214;48.012;7.862;2023-02-15T04:57:22;1.90;99.90
12303;DHT22;6214;48.012;7.862;2023-02-15T04:59:48;2.00;99.90
12303;DHT22;6214;48.012;7.862;2023-02-15T05:02:15;1.90;99.90
12303;DHT22;6214;48.012;7.862;2023-02-15T05:04:42;1.90;99.90
12303;DHT22;6214;48.012;7.862;2023-02-15T05:07:09;1.90;99.90
12303;DHT22;6214;48.012;7.862;2023-02-15T05:09:36;1.90;99.90
12303;DHT22;6214;48.012;7.862;2023-02-15T05:12:03;2.00;99.90
12303;DHT22;6214;48.012;7.862;2023-02-15T05:14:30;2.00;99.90
12303;DHT22;6214;48.012;7.862;2023-02-15T05:16:57;2.00;99.90
12303;DHT22;6214;48.012;7.862;2023-02-15T05:19:27;2.10;99.90
12303;DHT22;6214;48.012;7.862;2023-02-15T05:21:54;2.00;99.90
12303;DHT22;6214;48.012;7.862;2023-02-15T05:24:21;1.90;99.90
12303;DHT22;6214;48.012;7.862;2023-02-15T05:27:10;1.80;99.90
12303;DHT22;6214;48.012;7.862;2023-02-15T05:29:56;1.80;99.90
12303;DHT22;6214;48.012;7.862;2023-02-15T05:32:23;1.80;99.90
12303;DHT22;6214;48.012;7.862;2023-02-15T05:34:50;1.90;99.90
12303;DHT22;6214;48.012;7.862;2023-02-15T05:37:17;1.90;99.90
12303;DHT22;6214;48.012;7.862;2023-02-15T05:39:44;1.80;99.90
12303;DHT22;6214;48.012;7.862;2023-02-15T05:42:11;1.70;99.90
12303;DHT22;6214;48.012;7.862;2023-02-15T05:44:38;1.70;99.90
12303;DHT22;6214;48.012;7.862;2023-02-15T05:47:05;2.00;99.90
12303;DHT22;6214;48.012;7.862;2023-02-15T05:49:34;1.70;99.90
12303;DHT22;6214;48.012;7.862;2023-02-15T05:52:02;1.60;99.90
12303;DHT22;6214;48.012;7.862;2023-02-15T05:54:29;1.70;99.90
12303;DHT22;6214;48.012;7.862;2023-02-15T05:56:56;1.70;99.90
12303;DHT22;6214;48.012;7.862;2023-02-15T05:59:23;1.90;99.90
12303;DHT22;6214;48.012;7.862;2023-02-15T06:01:50;2.00;99.90
12303;DHT22;6214;48.012;7.862;2023-02-15T06:04:17;2.00;99.90
12303;DHT22;6214;48.012;7.862;2023-02-15T06:06:43;2.10;99.90
12303;DHT22;6214;48.012;7.862;2023-02-15T06:09:12;2.00;99.90
12303;DHT22;6214;48.012;7.862;2023-02-15T06:11:39;2.00;99.90
12303;DHT22;6214;48.012;7.862;2023-02-15T06:14:06;2.00;99.90
12303;DHT22;6214;48.012;7.862;2023-02-15T06:16:33;1.80;99.90
12303;DHT22;6214;48.012;7.862;2023-02-15T06:19:00;1.70;99.90
12303;DHT22;6214;48.012;7.862;2023-02-15T06:21:29;1.80;99.90
12303;DHT22;6214;48.012;7.862;2023-02-15T06:23:56;1.80;99.90
12303;DHT22;6214;48.012;7.862;2023-02-15T06:26:23;1.80;99.90
12303;DHT22;6214;48.012;7.862;2023-02-15T06:28:50;2.00;99.90
12303;DHT22;6214;48.012;7.862;2023-02-15T06:31:17;2.00;99.90
12303;DHT22;6214;48.012;7.862;2023-02-15T06:33:44;2.00;99.90
12303;DHT22;6214;48.012;7.862;2023-02-15T06:36:11;1.80;99.90
12303;DHT22;6214;48.012;7.862;2023-02-15T06:38:39;1.80;99.90
12303;DHT22;6214;48.012;7.862;2023-02-15T06:41:06;1.90;99.90
12303;DHT22;6214;48.012;7.862;2023-02-15T06:43:33;2.00;99.90
12303;DHT22;6214;48.012;7.862;2023-02-15T06:46:00;2.10;99.90
12303;DHT22;6214;48.012;7.862;2023-02-15T06:48:28;2.20;99.90
12303;DHT22;6214;48.012;7.862;2023-02-15T06:50:55;2.10;99.90
12303;DHT22;6214;48.012;7.862;2023-02-15T06:53:22;2.20;99.90
12303;DHT22;6214;48.012;7.862;2023-02-15T06:55:49;2.20;99.90
12303;DHT22;6214;48.012;7.862;2023-02-15T06:58:16;2.20;99.90
12303;DHT22;6214;48.012;7.862;2023-02-15T07:00:43;2.20;99.90
12303;DHT22;6214;48.012;7.862;2023-02-15T07:03:13;2.20;99.90
12303;DHT22;6214;48.012;7.862;2023-02-15T07:05:41;2.10;99.90
12303;DHT22;6214;48.012;7.862;2023-02-15T07:08:08;2.00;99.90
12303;DHT22;6214;48.012;7.862;2023-02-15T07:10:35;2.00;99.90
12303;DHT22;6214;48.012;7.862;2023-02-15T07:13:02;2.10;99.90
12303;DHT22;6214;48.012;7.862;2023-02-15T07:15:29;2.00;99.90
12303;DHT22;6214;48.012;7.862;2023-02-15T07:17:57;2.10;99.90
12303;DHT22;6214;48.012;7.862;2023-02-15T07:20:25;2.20;99.90
12303;DHT22;6214;48.012;7.862;2023-02-15T07:22:52;2.20;99.90
12303;DHT22;6214;48.012;7.862;2023-02-15T07:25:19;2.30;99.90
12303;DHT22;6214;48.012;7.862;2023-02-15T07:27:46;2.30;99.90
12303;DHT22;6214;48.012;7.862;2023-02-15T07:30:15;2.30;99.90
12303;DHT22;6214;48.012;7.862;2023-02-15T07:32:43;2.50;99.90
12303;DHT22;6214;48.012;7.862;2023-02-15T07:35:32;2.50;99.90
12303;DHT22;6214;48.012;7.862;2023-02-15T07:37:59;2.50;99.90
12303;DHT22;6214;48.012;7.862;2023-02-15T07:40:26;2.50;99.90
12303;DHT22;6214;48.012;7.862;2023-02-15T07:42:53;2.50;99.90
12303;DHT22;6214;48.012;7.862;2023-02-15T07:45:22;2.60;99.90
12303;DHT22;6214;48.012;7.862;2023-02-15T07:47:49;2.60;99.90
12303;DHT22;6214;48.012;7.862;2023-02-15T07:50:16;2.70;99.90
12303;DHT22;6214;48.012;7.862;2023-02-15T07:52:43;2.90;99.90
12303;DHT22;6214;48.012;7.862;2023-02-15T07:55:10;3.00;99.90
12303;DHT22;6214;48.012;7.862;2023-02-15T07:57:49;3.30;99.90
12303;DHT22;6214;48.012;7.862;2023-02-15T08:00:18;3.60;99.90
12303;DHT22;6214;48.012;7.862;2023-02-15T08:02:53;3.70;99.90
12303;DHT22;6214;48.012;7.862;2023-02-15T08:05:40;3.80;99.90
12303;DHT22;6214;48.012;7.862;2023-02-15T08:08:09;3.60;99.90
12303;DHT22;6214;48.012;7.862;2023-02-15T08:11:23;3.50;99.90
12303;DHT22;6214;48.012;7.862;2023-02-15T08:18:54;3.60;99.90
12303;DHT22;6214;48.012;7.862;2023-02-15T08:21:22;3.70;99.90
12303;DHT22;6214;48.012;7.862;2023-02-15T08:23:51;4.10;99.90
12303;DHT22;6214;48.012;7.862;2023-02-15T08:26:19;4.00;99.90
12303;DHT22;6214;48.012;7.862;2023-02-15T08:28:46;4.00;99.90
12303;DHT22;6214;48.012;7.862;2023-02-15T08:31:13;4.30;99.90
12303;DHT22;6214;48.012;7.862;2023-02-15T08:33:42;4.00;99.90
12303;DHT22;6214;48.012;7.862;2023-02-15T08:36:13;4.10;99.90
12303;DHT22;6214;48.012;7.862;2023-02-15T08:38:41;4.00;99.90
12303;DHT22;6214;48.012;7.862;2023-02-15T08:43:43;3.60;99.90
12303;DHT22;6214;48.012;7.862;2023-02-15T08:46:11;3.50;99.90
12303;DHT22;6214;48.012;7.862;2023-02-15T08:48:38;3.90;99.90
12303;DHT22;6214;48.012;7.862;2023-02-15T08:51:08;4.00;99.90
12303;DHT22;6214;48.012;7.862;2023-02-15T08:53:35;3.60;99.90
12303;DHT22;6214;48.012;7.862;2023-02-15T08:56:02;3.20;99.90
12303;DHT22;6214;48.012;7.862;2023-02-15T08:58:29;3.40;99.90
12303;DHT22;6214;48.012;7.862;2023-02-15T09:00:58;3.60;99.90
12303;DHT22;6214;48.012;7.862;2023-02-15T09:03:25;3.70;99.90
12303;DHT22;6214;48.012;7.862;2023-02-15T09:05:57;4.00;99.90
12303;DHT22;6214;48.012;7.862;2023-02-15T09:08:25;4.00;99.90
12303;DHT22;6214;48.012;7.862;2023-02-15T09:10:52;4.00;99.90
12303;DHT22;6214;48.012;7.862;2023-02-15T09:13:20;4.10;99.90
12303;DHT22;6214;48.012;7.862;2023-02-15T09:15:47;4.20;99.90
12303;DHT22;6214;48.012;7.862;2023-02-15T09:18:14;4.30;99.90
12303;DHT22;6214;48.012;7.862;2023-02-15T09:20:44;4.50;99.90
12303;DHT22;6214;48.012;7.862;2023-02-15T09:23:11;4.20;99.90
12303;DHT22;6214;48.012;7.862;2023-02-15T09:25:52;4.10;99.90
12303;DHT22;6214;48.012;7.862;2023-02-15T09:28:19;4.00;99.90
12303;DHT22;6214;48.012;7.862;2023-02-15T09:30:46;4.10;99.90
12303;DHT22;6214;48.012;7.862;2023-02-15T09:33:13;4.30;99.90
12303;DHT22;6214;48.012;7.862;2023-02-15T09:35:40;4.00;99.90
12303;DHT22;6214;48.012;7.862;2023-02-15T09:38:07;4.10;99.90
12303;DHT22;6214;48.012;7.862;2023-02-15T09:40:39;4.10;99.90
12303;DHT22;6214;48.012;7.862;2023-02-15T09:43:29;4.20;99.90
12303;DHT22;6214;48.012;7.862;2023-02-15T09:46:16;4.10;99.90
12303;DHT22;6214;48.012;7.862;2023-02-15T09:48:53;3.90;99.90
12303;DHT22;6214;48.012;7.862;2023-02-15T09:56:51;4.30;99.90
12303;DHT22;6214;48.012;7.862;2023-02-15T09:59:30;4.30;99.90
12303;DHT22;6214;48.012;7.862;2023-02-15T10:02:19;4.70;99.90
12303;DHT22;6214;48.012;7.862;2023-02-15T10:12:55;5.40;99.90
12303;DHT22;6214;48.012;7.862;2023-02-15T10:18:10;5.30;99.90
12303;DHT22;6214;48.012;7.862;2023-02-15T10:28:49;4.70;99.90
12303;DHT22;6214;48.012;7.862;2023-02-15T10:31:49;5.10;99.90
12303;DHT22;6214;48.012;7.862;2023-02-15T10:34:43;5.60;99.90
12303;DHT22;6214;48.012;7.862;2023-02-15T10:37:38;5.10;99.90
12303;DHT22;6214;48.012;7.862;2023-02-15T10:45:49;5.50;99.90
12303;DHT22;6214;48.012;7.862;2023-02-15T10:51:10;6.30;99.90
12303;DHT22;6214;48.012;7.862;2023-02-15T11:07:51;5.70;99.90
12303;DHT22;6214;48.012;7.862;2023-02-15T11:10:34;5.70;99.90
12303;DHT22;6214;48.012;7.862;2023-02-15T11:13:08;5.80;99.90
12303;DHT22;6214;48.012;7.862;2023-02-15T11:18:33;5.80;99.90
12303;DHT22;6214;48.012;7.862;2023-02-15T11:21:11;5.70;99.90
12303;DHT22;6214;48.012;7.862;2023-02-15T11:23:43;5.50;99.90
12303;DHT22;6214;48.012;7.862;2023-02-15T11:29:52;5.70;99.90
12303;DHT22;6214;48.012;7.862;2023-02-15T11:31:53;5.40;99.90
12303;DHT22;6214;48.012;7.862;2023-02-15T11:34:34;5.60;99.90
12303;DHT22;6214;48.012;7.862;2023-02-15T11:37:11;5.70;99.90
12303;DHT22;6214;48.012;7.862;2023-02-15T11:39:40;6.00;99.90
12303;DHT22;6214;48.012;7.862;2023-02-15T11:42:15;6.20;99.90
12303;DHT22;6214;48.012;7.862;2023-02-15T11:47:18;6.10;99.90
12303;DHT22;6214;48.012;7.862;2023-02-15T11:49:46;6.10;99.90
12303;DHT22;6214;48.012;7.862;2023-02-15T11:52:15;6.40;99.90
12303;DHT22;6214;48.012;7.862;2023-02-15T11:54:47;6.40;99.90
12303;DHT22;6214;48.012;7.862;2023-02-15T11:59:55;6.50;99.90
12303;DHT22;6214;48.012;7.862;2023-02-15T12:02:22;6.80;99.90
12303;DHT22;6214;48.012;7.862;2023-02-15T12:05:03;7.00;99.90
12303;DHT22;6214;48.012;7.862;2023-02-15T12:07:46;6.80;99.90
12303;DHT22;6214;48.012;7.862;2023-02-15T12:15:35;7.30;99.90
12303;DHT22;6214;48.012;7.862;2023-02-15T12:18:03;7.50;99.90
12303;DHT22;6214;48.012;7.862;2023-02-15T12:20:34;7.30;99.90
12303;DHT22;6214;48.012;7.862;2023-02-15T12:23:04;7.00;99.90
12303;DHT22;6214;48.012;7.862;2023-02-15T12:25:40;7.10;99.90
12303;DHT22;6214;48.012;7.862;2023-02-15T12:28:36;7.00;99.90
12303;DHT22;6214;48.012;7.862;2023-02-15T12:33:56;7.40;99.90
12303;DHT22;6214;48.012;7.862;2023-02-15T12:36:29;7.60;99.90
12303;DHT22;6214;48.012;7.862;2023-02-15T12:39:05;7.70;99.90
12303;DHT22;6214;48.012;7.862;2023-02-15T12:42:41;7.60;99.90
12303;DHT22;6214;48.012;7.862;2023-02-15T12:44:34;7.60;99.90
12303;DHT22;6214;48.012;7.862;2023-02-15T12:47:04;7.70;99.90
12303;DHT22;6214;48.012;7.862;2023-02-15T12:49:37;7.80;99.90
12303;DHT22;6214;48.012;7.862;2023-02-15T12:54:44;8.00;99.90
12303;DHT22;6214;48.012;7.862;2023-02-15T12:57:26;8.00;99.90
12303;DHT22;6214;48.012;7.862;2023-02-15T12:59:59;8.30;99.90
12303;DHT22;6214;48.012;7.862;2023-02-15T13:02:48;8.60;99.90
12303;DHT22;6214;48.012;7.862;2023-02-15T13:05:35;8.70;99.90
12303;DHT22;6214;48.012;7.862;2023-02-15T13:08:16;8.70;99.90
12303;DHT22;6214;48.012;7.862;2023-02-15T13:11:06;8.50;99.90
12303;DHT22;6214;48.012;7.862;2023-02-15T13:13:58;8.60;99.90
12303;DHT22;6214;48.012;7.862;2023-02-15T13:16:30;8.80;99.90
12303;DHT22;6214;48.012;7.862;2023-02-15T13:19:03;8.80;99.90
12303;DHT22;6214;48.012;7.862;2023-02-15T13:21:35;8.80;99.90
12303;DHT22;6214;48.012;7.862;2023-02-15T13:24:07;8.70;99.90
12303;DHT22;6214;48.012;7.862;2023-02-15T13:26:39;8.70;99.90
12303;DHT22;6214;48.012;7.862;2023-02-15T13:29:33;8.50;99.90
12303;DHT22;6214;48.012;7.862;2023-02-15T13:32:35;8.70;99.90
12303;DHT22;6214;48.012;7.862;2023-02-15T13:35:14;8.70;99.90
12303;DHT22;6214;48.012;7.862;2023-02-15T13:37:59;8.60;99.90
12303;DHT22;6214;48.012;7.862;2023-02-15T13:43:47;8.80;99.90
12303;DHT22;6214;48.012;7.862;2023-02-15T13:52:29;9.10;99.90
12303;DHT22;6214;48.012;7.862;2023-02-15T14:03:00;9.10;99.90
12303;DHT22;6214;48.012;7.862;2023-02-15T14:08:02;9.30;99.90
12303;DHT22;6214;48.012;7.862;2023-02-15T14:16:24;9.50;99.90
12303;DHT22;6214;48.012;7.862;2023-02-15T14:21:42;9.40;99.90
12303;DHT22;6214;48.012;7.862;2023-02-15T14:29:59;9.50;99.90
12303;DHT22;6214;48.012;7.862;2023-02-15T14:32:34;9.60;99.90
12303;DHT22;6214;48.012;7.862;2023-02-15T14:35:04;9.60;99.90
12303;DHT22;6214;48.012;7.862;2023-02-15T14:41:21;9.70;99.90
12303;DHT22;6214;48.012;7.862;2023-02-15T15:12:44;9.90;99.90
12303;DHT22;6214;48.012;7.862;2023-02-15T15:15:33;9.90;99.90
12303;DHT22;6214;48.012;7.862;2023-02-15T15:18:10;9.80;99.90
12303;DHT22;6214;48.012;7.862;2023-02-15T15:20:57;9.90;99.90
12303;DHT22;6214;48.012;7.862;2023-02-15T15:23:41;9.80;99.90
12303;DHT22;6214;48.012;7.862;2023-02-15T15:26:27;9.70;99.90
12303;DHT22;6214;48.012;7.862;2023-02-15T15:28:57;9.80;99.90
12303;DHT22;6214;48.012;7.862;2023-02-15T15:45:54;9.30;99.90
12303;DHT22;6214;48.012;7.862;2023-02-15T15:48:35;9.30;99.90
12303;DHT22;6214;48.012;7.862;2023-02-15T15:51:14;9.20;99.90
12303;DHT22;6214;48.012;7.862;2023-02-15T15:53:46;9.10;99.90
12303;DHT22;6214;48.012;7.862;2023-02-15T15:56:21;8.90;99.90
12303;DHT22;6214;48.012;7.862;2023-02-15T15:58:53;8.90;99.90
12303;DHT22;6214;48.012;7.862;2023-02-15T16:01:34;8.80;99.90
12303;DHT22;6214;48.012;7.862;2023-02-15T16:04:02;8.70;99.90
12303;DHT22;6214;48.012;7.862;2023-02-15T16:06:30;8.60;99.90
12303;DHT22;6214;48.012;7.862;2023-02-15T16:09:08;8.50;99.90
12303;DHT22;6214;48.012;7.862;2023-02-15T16:11:37;8.40;99.90
12303;DHT22;6214;48.012;7.862;2023-02-15T16:14:17;8.30;99.90
12303;DHT22;6214;48.012;7.862;2023-02-15T16:16:53;8.30;99.90
12303;DHT22;6214;48.012;7.862;2023-02-15T16:19:24;8.10;99.90
12303;DHT22;6214;48.012;7.862;2023-02-15T16:21:53;8.00;99.90
12303;DHT22;6214;48.012;7.862;2023-02-15T16:27:10;7.90;99.90
12303;DHT22;6214;48.012;7.862;2023-02-15T16:29:41;7.80;99.90
12303;DHT22;6214;48.012;7.862;2023-02-15T16:32:23;7.70;99.90
12303;DHT22;6214;48.012;7.862;2023-02-15T16:34:59;7.70;99.90
12303;DHT22;6214;48.012;7.862;2023-02-15T16:37:31;7.60;99.90
12303;DHT22;6214;48.012;7.862;2023-02-15T16:39:58;7.60;99.90
12303;DHT22;6214;48.012;7.862;2023-02-15T16:42:26;7.50;99.90
12303;DHT22;6214;48.012;7.862;2023-02-15T16:45:08;7.40;99.90
12303;DHT22;6214;48.012;7.862;2023-02-15T16:47:40;7.30;99.90
12303;DHT22;6214;48.012;7.862;2023-02-15T16:50:18;7.20;99.90
12303;DHT22;6214;48.012;7.862;2023-02-15T16:52:46;7.20;99.90
12303;DHT22;6214;48.012;7.862;2023-02-15T16:55:28;7.10;99.90
12303;DHT22;6214;48.012;7.862;2023-02-15T16:58:02;6.90;99.90
12303;DHT22;6214;48.012;7.862;2023-02-15T17:00:34;6.90;99.90
12303;DHT22;6214;48.012;7.862;2023-02-15T17:03:19;6.70;99.90
12303;DHT22;6214;48.012;7.862;2023-02-15T17:05:50;6.50;99.90
12303;DHT22;6214;48.012;7.862;2023-02-15T17:08:32;6.60;99.90
12303;DHT22;6214;48.012;7.862;2023-02-15T17:13:27;6.50;99.90
12303;DHT22;6214;48.012;7.862;2023-02-15T17:18:48;6.40;99.90
12303;DHT22;6214;48.012;7.862;2023-02-15T17:21:19;6.40;99.90
12303;DHT22;6214;48.012;7.862;2023-02-15T17:23:51;6.30;99.90
12303;DHT22;6214;48.012;7.862;2023-02-15T17:26:26;6.10;99.90
12303;DHT22;6214;48.012;7.862;2023-02-15T17:28:56;6.00;99.90
12303;DHT22;6214;48.012;7.862;2023-02-15T17:31:31;5.90;99.90
12303;DHT22;6214;48.012;7.862;2023-02-15T17:34:00;5.70;99.90
12303;DHT22;6214;48.012;7.862;2023-02-15T17:36:29;5.70;99.90
12303;DHT22;6214;48.012;7.862;2023-02-15T17:41:32;5.70;99.90
12303;DHT22;6214;48.012;7.862;2023-02-15T17:44:01;5.60;99.90
12303;DHT22;6214;48.012;7.862;2023-02-15T17:46:36;5.40;99.90
12303;DHT22;6214;48.012;7.862;2023-02-15T17:49:03;5.40;99.90
12303;DHT22;6214;48.012;7.862;2023-02-15T17:51:32;5.20;99.90
12303;DHT22;6214;48.012;7.862;2023-02-15T17:54:01;5.40;99.90
12303;DHT22;6214;48.012;7.862;2023-02-15T17:56:47;5.40;99.90
12303;DHT22;6214;48.012;7.862;2023-02-15T17:59:14;5.40;99.90
12303;DHT22;6214;48.012;7.862;2023-02-15T18:01:47;5.30;99.90
12303;DHT22;6214;48.012;7.862;2023-02-15T18:04:35;5.40;99.90
12303;DHT22;6214;48.012;7.862;2023-02-15T18:07:22;5.30;99.90
12303;DHT22;6214;48.012;7.862;2023-02-15T18:10:18;5.20;99.90
12303;DHT22;6214;48.012;7.862;2023-02-15T18:13:03;5.10;99.90
12303;DHT22;6214;48.012;7.862;2023-02-15T18:15:31;5.20;99.90
12303;DHT22;6214;48.012;7.862;2023-02-15T18:17:58;5.20;99.90
12303;DHT22;6214;48.012;7.862;2023-02-15T18:20:32;5.20;99.90
12303;DHT22;6214;48.012;7.862;2023-02-15T18:23:00;5.00;99.90
12303;DHT22;6214;48.012;7.862;2023-02-15T18:25:28;5.00;99.90
12303;DHT22;6214;48.012;7.862;2023-02-15T18:27:55;5.00;99.90
12303;DHT22;6214;48.012;7.862;2023-02-15T18:30:23;5.10;99.90
12303;DHT22;6214;48.012;7.862;2023-02-15T18:32:55;5.10;99.90
12303;DHT22;6214;48.012;7.862;2023-02-15T18:35:28;5.10;99.90
12303;DHT22;6214;48.012;7.862;2023-02-15T18:37:56;5.00;99.90
12303;DHT22;6214;48.012;7.862;2023-02-15T18:40:26;4.80;99.90
12303;DHT22;6214;48.012;7.862;2023-02-15T18:42:53;4.80;99.90
12303;DHT22;6214;48.012;7.862;2023-02-15T18:45:27;4.70;99.90
12303;DHT22;6214;48.012;7.862;2023-02-15T18:47:58;4.70;99.90
12303;DHT22;6214;48.012;7.862;2023-02-15T18:50:29;4.80;99.90
12303;DHT22;6214;48.012;7.862;2023-02-15T18:52:56;4.70;99.90
12303;DHT22;6214;48.012;7.862;2023-02-15T18:55:26;4.60;99.90
12303;DHT22;6214;48.012;7.862;2023-02-15T18:57:58;4.60;99.90
12303;DHT22;6214;48.012;7.862;2023-02-15T19:00:29;4.70;99.90
12303;DHT22;6214;48.012;7.862;2023-02-15T19:02:56;4.70;99.90
12303;DHT22;6214;48.012;7.862;2023-02-15T19:05:24;4.50;99.90
12303;DHT22;6214;48.012;7.862;2023-02-15T19:07:54;4.60;99.90
12303;DHT22;6214;48.012;7.862;2023-02-15T19:10:25;4.50;99.90
12303;DHT22;6214;48.012;7.862;2023-02-15T19:12:53;4.30;99.90
12303;DHT22;6214;48.012;7.862;2023-02-15T19:15:27;4.30;99.90
12303;DHT22;6214;48.012;7.862;2023-02-15T19:17:56;4.40;99.90
12303;DHT22;6214;48.012;7.862;2023-02-15T19:20:28;4.40;99.90
12303;DHT22;6214;48.012;7.862;2023-02-15T19:22:57;4.50;99.90
12303;DHT22;6214;48.012;7.862;2023-02-15T19:25:29;4.50;99.90
12303;DHT22;6214;48.012;7.862;2023-02-15T19:27:57;4.40;99.90
12303;DHT22;6214;48.012;7.862;2023-02-15T19:30:29;4.40;99.90
12303;DHT22;6214;48.012;7.862;2023-02-15T19:32:58;4.40;99.90
12303;DHT22;6214;48.012;7.862;2023-02-15T19:35:28;4.20;99.90
12303;DHT22;6214;48.012;7.862;2023-02-15T19:37:59;4.30;99.90
12303;DHT22;6214;48.012;7.862;2023-02-15T19:40:29;4.30;99.90
12303;DHT22;6214;48.012;7.862;2023-02-15T19:42:56;4.20;99.90
12303;DHT22;6214;48.012;7.862;2023-02-15T19:45:29;4.00;99.90
12303;DHT22;6214;48.012;7.862;2023-02-15T19:47:56;4.10;99.90
12303;DHT22;6214;48.012;7.862;2023-02-15T19:50:25;4.10;99.90
12303;DHT22;6214;48.012;7.862;2023-02-15T19:52:52;4.10;99.90